createdAt,value
2023-04-25T00:01:27.078Z,10.20
2023-04-25T00:06:30.367Z,10.23
2023-04-25T00:11:31.351Z,10.24
2023-04-25T00:16:34.389Z,10.23
2023-04-25T00:21:35.890Z,10.17
2023-04-25T00:26:37.273Z,10.12
2023-04-25T00:31:38.336Z,10.06
2023-04-25T00:36:39.903Z,9.98
2023-04-25T00:41:41.198Z,9.92
2023-04-25T00:46:42.959Z,9.87
2023-04-25T00:51:45.115Z,9.85
2023-04-25T00:56:46.226Z,9.80
2023-04-25T01:01:47.601Z,9.73
2023-04-25T01:06:48.863Z,9.63
2023-04-25T01:11:50.134Z,9.56
2023-04-25T01:16:51.294Z,9.49
2023-04-25T01:21:52.418Z,9.44
2023-04-25T01:26:56.646Z,9.40
2023-04-25T01:31:59.727Z,9.35
2023-04-25T01:37:03.987Z,9.28
2023-04-25T01:42:05.112Z,9.21
2023-04-25T01:47:06.326Z,9.17
2023-04-25T01:52:07.474Z,9.11
2023-04-25T01:57:08.748Z,9.04
2023-04-25T02:02:11.026Z,8.97
2023-04-25T02:07:12.271Z,8.89
2023-04-25T02:12:22.090Z,8.80
2023-04-25T02:17:46.675Z,8.71
2023-04-25T02:22:48.148Z,8.65
2023-04-25T02:27:49.196Z,8.60
2023-04-25T02:32:50.219Z,8.59
2023-04-25T02:37:51.582Z,8.54
2023-04-25T02:42:52.573Z,8.53
2023-04-25T02:47:53.647Z,8.50
2023-04-25T02:52:55.222Z,8.46
2023-04-25T02:58:00.796Z,8.42
2023-04-25T03:03:12.851Z,8.41
2023-04-25T03:08:13.946Z,8.39
2023-04-25T03:13:14.925Z,8.36
2023-04-25T03:18:17.118Z,8.35
2023-04-25T03:23:18.125Z,8.32
2023-04-25T03:28:20.668Z,8.29
2023-04-25T03:33:22.659Z,8.28
2023-04-25T03:38:23.764Z,8.27
2023-04-25T03:43:24.990Z,8.24
2023-04-25T03:48:31.011Z,8.22
2023-04-25T03:53:33.547Z,8.20
2023-04-25T03:58:54.682Z,8.19
2023-04-25T04:03:57.996Z,8.19
2023-04-25T04:09:00.497Z,8.22
2023-04-25T04:14:01.740Z,8.28
2023-04-25T04:19:03.735Z,8.34
2023-04-25T04:24:06.126Z,8.39
2023-04-25T04:29:21.322Z,8.44
2023-04-25T04:34:34.134Z,8.47
2023-04-25T04:39:36.008Z,8.55
2023-04-25T04:44:47.731Z,8.63
2023-04-25T04:50:18.613Z,8.68
2023-04-25T04:55:38.553Z,8.71
2023-04-25T05:00:47.256Z,8.80
2023-04-25T05:06:06.931Z,8.89
2023-04-25T05:11:34.103Z,8.98
2023-04-25T05:17:06.898Z,9.06
2023-04-25T05:22:13.776Z,9.10
2023-04-25T05:27:42.432Z,9.16
2023-04-25T05:32:57.097Z,9.20
2023-04-25T05:37:58.579Z,9.33
2023-04-25T05:43:15.810Z,9.43
2023-04-25T05:48:26.182Z,9.56
2023-04-25T05:53:45.068Z,9.72
2023-04-25T05:58:47.819Z,9.76
2023-04-25T06:03:49.827Z,9.66
2023-04-25T06:08:52.064Z,9.56
2023-04-25T06:13:53.196Z,9.47
2023-04-25T06:18:54.549Z,9.56
2023-04-25T06:23:55.622Z,9.66
2023-04-25T06:28:58.483Z,9.71
2023-04-25T06:33:59.826Z,9.80
2023-04-25T06:39:01.369Z,9.99
2023-04-25T06:44:02.833Z,10.20
2023-04-25T06:49:10.241Z,10.42
2023-04-25T06:54:11.718Z,10.64
2023-04-25T06:59:18.116Z,10.99
2023-04-25T07:04:21.152Z,11.00
2023-04-25T07:09:28.670Z,10.94
2023-04-25T07:14:30.188Z,11.00
2023-04-25T07:19:32.281Z,11.01
2023-04-25T07:24:34.533Z,11.23
2023-04-25T07:29:37.364Z,11.50
2023-04-25T07:34:39.048Z,11.75
2023-04-25T07:39:40.379Z,11.81
2023-04-25T07:44:42.632Z,11.86
2023-04-25T07:49:45.724Z,12.08
2023-04-25T07:54:47.566Z,12.51
2023-04-25T07:59:51.591Z,12.77
2023-04-25T08:04:53.381Z,13.00
2023-04-25T08:09:55.290Z,12.98
2023-04-25T08:15:04.456Z,12.86
2023-04-25T08:20:09.172Z,12.78
2023-04-25T08:25:10.487Z,13.11
2023-04-25T08:30:13.029Z,13.53
2023-04-25T08:35:14.864Z,13.68
2023-04-25T08:40:16.789Z,13.59
2023-04-25T08:45:28.152Z,13.94
2023-04-25T08:50:30.565Z,14.06
2023-04-25T08:55:32.241Z,13.99
2023-04-25T09:00:33.804Z,13.93
2023-04-25T09:05:35.801Z,13.97
2023-04-25T09:10:37.359Z,14.28
2023-04-25T09:15:56.158Z,14.42
2023-04-25T09:21:14.924Z,14.30
2023-04-25T09:26:20.460Z,14.15
2023-04-25T09:31:25.574Z,14.27
2023-04-25T09:36:31.055Z,14.53
2023-04-25T09:41:59.379Z,14.46
2023-04-25T09:47:00.591Z,13.93
2023-04-25T09:52:03.231Z,13.59
2023-04-25T09:57:14.136Z,13.47
2023-04-25T10:02:23.876Z,13.38
2023-04-25T10:07:31.159Z,13.49
2023-04-25T10:12:36.334Z,13.79
2023-04-25T10:17:37.472Z,14.01
2023-04-25T10:22:42.935Z,13.66
2023-04-25T10:27:44.601Z,13.56
2023-04-25T10:32:47.499Z,13.22
2023-04-25T10:38:04.345Z,13.27
2023-04-25T10:43:44.596Z,13.42
2023-04-25T10:48:50.755Z,13.59
2023-04-25T10:53:54.897Z,13.81
2023-04-25T10:59:19.619Z,13.66
2023-04-25T11:04:36.882Z,13.79
2023-04-25T11:09:40.783Z,13.92
2023-04-25T11:14:42.027Z,13.93
2023-04-25T11:19:43.133Z,14.16
2023-04-25T11:24:44.202Z,14.23
2023-04-25T11:29:48.073Z,14.12
2023-04-25T11:34:49.093Z,14.19
2023-04-25T11:39:50.157Z,13.95
2023-04-25T11:44:51.739Z,13.78
2023-04-25T11:49:53.908Z,13.58
2023-04-25T11:54:56.520Z,13.46
2023-04-25T12:00:08.923Z,13.36
2023-04-25T12:05:30.393Z,13.20
2023-04-25T12:10:32.906Z,13.11
2023-04-25T12:15:34.205Z,13.21
2023-04-25T12:20:35.784Z,13.19
2023-04-25T12:25:45.320Z,13.28
2023-04-25T12:31:05.758Z,13.25
2023-04-25T12:36:12.560Z,13.52
2023-04-25T12:41:13.542Z,13.58
2023-04-25T12:46:14.636Z,13.66
2023-04-25T12:51:21.275Z,13.88
2023-04-25T12:56:24.537Z,14.03
2023-04-25T13:01:27.018Z,14.07
2023-04-25T13:06:30.258Z,14.04
2023-04-25T13:11:31.867Z,14.16
2023-04-25T13:16:33.165Z,14.44
2023-04-25T13:21:34.195Z,14.93
2023-04-25T13:26:35.279Z,15.13
2023-04-25T13:31:36.266Z,15.62
2023-04-25T13:36:37.305Z,15.47
2023-04-25T13:41:38.326Z,15.13
2023-04-25T13:51:43.775Z,15.17
2023-04-25T13:56:45.997Z,15.23
2023-04-25T14:01:47.035Z,15.23
2023-04-25T14:06:48.283Z,15.00
2023-04-25T14:11:49.408Z,14.70
2023-04-25T14:16:51.973Z,14.47
2023-04-25T14:21:52.910Z,14.31
2023-04-25T14:26:53.928Z,14.30
2023-04-25T14:31:54.955Z,14.30
2023-04-25T14:36:55.959Z,14.24
2023-04-25T14:41:57.091Z,14.47
2023-04-25T14:46:58.370Z,14.82
2023-04-25T14:52:00.317Z,14.65
2023-04-25T14:57:01.593Z,13.92
2023-04-25T15:02:02.933Z,13.56
2023-04-25T15:07:05.552Z,13.67
2023-04-25T15:12:07.248Z,13.82
2023-04-25T15:17:08.278Z,13.67
2023-04-25T15:22:09.821Z,13.41
2023-04-25T15:27:11.185Z,13.13
2023-04-25T15:32:12.197Z,13.09
2023-04-25T15:37:13.470Z,13.12
2023-04-25T15:42:14.835Z,13.01
2023-04-25T15:47:15.899Z,13.03
2023-04-25T15:52:21.162Z,13.12
2023-04-25T15:57:22.896Z,13.19
2023-04-25T16:02:24.283Z,13.14
2023-04-25T16:07:25.579Z,13.13
2023-04-25T16:12:28.026Z,13.02
2023-04-25T16:17:29.509Z,12.87
2023-04-25T16:22:31.307Z,12.72
2023-04-25T16:27:34.450Z,12.71
2023-04-25T16:32:35.895Z,12.69
2023-04-25T16:37:36.947Z,12.72
2023-04-25T16:42:38.007Z,12.89
2023-04-25T16:47:39.141Z,13.01
2023-04-25T16:52:40.544Z,12.84
2023-04-25T16:57:41.722Z,12.57
2023-04-25T17:02:43.052Z,12.22
2023-04-25T17:07:44.168Z,11.89
2023-04-25T17:12:46.795Z,11.62
2023-04-25T17:17:47.915Z,11.41
2023-04-25T17:22:49.057Z,11.26
2023-04-25T17:27:50.523Z,11.14
2023-04-25T17:32:52.062Z,10.99
2023-04-25T17:37:53.106Z,10.89
2023-04-25T17:42:54.289Z,10.72
2023-04-25T17:47:55.357Z,10.51
2023-04-25T17:52:56.630Z,10.35
2023-04-25T17:57:57.614Z,10.17
2023-04-25T18:02:58.706Z,10.01
2023-04-25T18:08:01.300Z,9.77
2023-04-25T18:13:02.716Z,9.52
2023-04-25T18:18:14.034Z,9.30
2023-04-25T18:23:15.899Z,9.07
2023-04-25T18:28:18.230Z,8.89
2023-04-25T18:33:21.376Z,8.71
2023-04-25T18:38:34.955Z,8.57
2023-04-25T18:43:37.246Z,8.59
2023-04-25T18:48:38.763Z,8.62
2023-04-25T18:53:40.641Z,8.61
2023-04-25T18:58:41.760Z,8.56
2023-04-25T19:03:43.937Z,8.54
2023-04-25T19:08:45.233Z,8.55
2023-04-25T19:13:47.042Z,8.56
2023-04-25T19:18:48.068Z,8.57
2023-04-25T19:23:49.053Z,8.55
2023-04-25T19:29:07.513Z,8.51
2023-04-25T19:34:08.766Z,8.49
2023-04-25T19:39:10.122Z,8.53
2023-04-25T19:44:11.423Z,8.56
2023-04-25T19:49:12.448Z,8.58
2023-04-25T19:54:13.504Z,8.58
2023-04-25T19:59:17.215Z,8.57
2023-04-25T20:04:18.300Z,8.59
2023-04-25T20:09:22.520Z,8.61
2023-04-25T20:14:23.670Z,8.64
2023-04-25T20:19:24.767Z,8.64
2023-04-25T20:24:25.892Z,8.64
2023-04-25T20:29:26.955Z,8.63
2023-04-25T20:34:30.584Z,8.61
2023-04-25T20:39:32.703Z,8.61
2023-04-25T20:44:33.833Z,8.59
2023-04-25T20:49:35.960Z,8.58
2023-04-25T20:54:37.810Z,8.56
2023-04-25T20:59:38.859Z,8.61
2023-04-25T21:04:40.060Z,8.60
2023-04-25T21:09:44.857Z,8.58
2023-04-25T21:14:51.453Z,8.58
2023-04-25T21:19:52.728Z,8.57
2023-04-25T21:24:56.500Z,8.52
2023-04-25T21:29:57.772Z,8.42
2023-04-25T21:34:58.877Z,8.27
2023-04-25T21:40:00.794Z,8.13
2023-04-25T21:45:05.242Z,7.99
2023-04-25T21:50:26.840Z,7.89
2023-04-25T21:55:27.923Z,7.77
2023-04-25T22:00:31.308Z,7.64
2023-04-25T22:05:33.592Z,7.53
2023-04-25T22:10:34.857Z,7.44
2023-04-25T22:15:38.035Z,7.37
2023-04-25T22:20:39.352Z,7.30
2023-04-25T22:25:41.523Z,7.24
2023-04-25T22:30:45.436Z,7.18
2023-04-25T22:35:46.910Z,7.10
2023-04-25T22:40:48.174Z,6.98
2023-04-25T22:45:49.487Z,6.80
2023-04-25T22:50:50.927Z,6.68
2023-04-25T22:55:56.746Z,6.61
2023-04-25T23:00:58.272Z,6.59
2023-04-25T23:06:00.055Z,6.58
2023-04-25T23:11:07.241Z,6.59
2023-04-25T23:16:10.154Z,6.65
2023-04-25T23:21:11.630Z,6.71
2023-04-25T23:26:13.429Z,6.75
2023-04-25T23:31:15.333Z,6.75
2023-04-25T23:36:20.484Z,6.73
2023-04-25T23:41:24.725Z,6.72
2023-04-25T23:46:30.998Z,6.70
2023-04-25T23:51:34.036Z,6.66
2023-04-25T23:56:35.458Z,6.61
